sensor_id;sensor_type;location;lat;lon;timestamp;temperature;humidity
32698;DHT22;19087;51.062;3.754;2024-03-08T00:02:03;6.10;99.90
32698;DHT22;19087;51.062;3.754;2024-03-08T00:04:29;6.20;99.90
32698;DHT22;19087;51.062;3.754;2024-03-08T00:06:55;6.10;99.90
32698;DHT22;19087;51.062;3.754;2024-03-08T00:09:21;6.10;99.90
32698;DHT22;19087;51.062;3.754;2024-03-08T00:11:48;6.10;99.90
32698;DHT22;19087;51.062;3.754;2024-03-08T00:14:15;6.10;99.90
32698;DHT22;19087;51.062;3.754;2024-03-08T00:16:42;6.10;99.90
32698;DHT22;19087;51.062;3.754;2024-03-08T00:19:09;6.10;99.90
32698;DHT22;19087;51.062;3.754;2024-03-08T00:21:35;6.10;99.90
32698;DHT22;19087;51.062;3.754;2024-03-08T00:24:01;6.10;99.90
32698;DHT22;19087;51.062;3.754;2024-03-08T00:26:27;6.10;99.90
32698;DHT22;19087;51.062;3.754;2024-03-08T00:28:54;6.10;99.90
32698;DHT22;19087;51.062;3.754;2024-03-08T00:31:20;5.90;99.90
32698;DHT22;19087;51.062;3.754;2024-03-08T00:33:46;5.90;99.90
32698;DHT22;19087;51.062;3.754;2024-03-08T00:36:12;6.00;99.90
32698;DHT22;19087;51.062;3.754;2024-03-08T00:38:38;6.10;99.90
32698;DHT22;19087;51.062;3.754;2024-03-08T00:41:03;6.00;99.90
32698;DHT22;19087;51.062;3.754;2024-03-08T00:43:29;5.90;99.90
32698;DHT22;19087;51.062;3.754;2024-03-08T00:45:56;6.00;99.90
32698;DHT22;19087;51.062;3.754;2024-03-08T00:48:23;6.00;99.90
32698;DHT22;19087;51.062;3.754;2024-03-08T00:50:49;6.00;99.90
32698;DHT22;19087;51.062;3.754;2024-03-08T00:53:17;5.90;99.90
32698;DHT22;19087;51.062;3.754;2024-03-08T00:55:46;5.90;99.90
32698;DHT22;19087;51.062;3.754;2024-03-08T00:58:13;5.90;99.90
32698;DHT22;19087;51.062;3.754;2024-03-08T01:00:38;5.80;99.90
32698;DHT22;19087;51.062;3.754;2024-03-08T01:03:05;5.70;99.90
32698;DHT22;19087;51.062;3.754;2024-03-08T01:05:31;5.70;99.90
32698;DHT22;19087;51.062;3.754;2024-03-08T01:07:56;5.80;99.90
32698;DHT22;19087;51.062;3.754;2024-03-08T01:10:22;5.80;99.90
32698;DHT22;19087;51.062;3.754;2024-03-08T01:12:49;5.80;99.90
32698;DHT22;19087;51.062;3.754;2024-03-08T01:15:15;5.80;99.90
32698;DHT22;19087;51.062;3.754;2024-03-08T01:17:41;5.80;99.90
32698;DHT22;19087;51.062;3.754;2024-03-08T01:20:09;5.80;99.90
32698;DHT22;19087;51.062;3.754;2024-03-08T01:22:38;5.70;99.90
32698;DHT22;19087;51.062;3.754;2024-03-08T01:25:04;5.70;99.90
32698;DHT22;19087;51.062;3.754;2024-03-08T01:27:31;5.70;99.90
32698;DHT22;19087;51.062;3.754;2024-03-08T01:29:57;5.70;99.90
32698;DHT22;19087;51.062;3.754;2024-03-08T01:32:25;5.60;99.90
32698;DHT22;19087;51.062;3.754;2024-03-08T01:34:50;5.60;99.90
32698;DHT22;19087;51.062;3.754;2024-03-08T01:37:16;5.50;99.90
32698;DHT22;19087;51.062;3.754;2024-03-08T01:39:42;5.40;99.90
32698;DHT22;19087;51.062;3.754;2024-03-08T01:42:08;5.40;99.90
32698;DHT22;19087;51.062;3.754;2024-03-08T01:44:34;5.40;99.90
32698;DHT22;19087;51.062;3.754;2024-03-08T01:47:00;5.40;99.90
32698;DHT22;19087;51.062;3.754;2024-03-08T01:49:26;5.40;99.90
32698;DHT22;19087;51.062;3.754;2024-03-08T01:51:55;5.50;99.90
32698;DHT22;19087;51.062;3.754;2024-03-08T01:54:27;5.40;99.90
32698;DHT22;19087;51.062;3.754;2024-03-08T01:56:53;5.30;99.90
32698;DHT22;19087;51.062;3.754;2024-03-08T01:59:19;5.30;99.90
32698;DHT22;19087;51.062;3.754;2024-03-08T02:01:45;5.30;99.90
32698;DHT22;19087;51.062;3.754;2024-03-08T02:04:11;5.40;99.90
32698;DHT22;19087;51.062;3.754;2024-03-08T02:06:36;5.30;99.90
32698;DHT22;19087;51.062;3.754;2024-03-08T02:09:03;5.20;99.90
32698;DHT22;19087;51.062;3.754;2024-03-08T02:11:32;5.20;99.90
32698;DHT22;19087;51.062;3.754;2024-03-08T02:13:58;5.30;99.90
32698;DHT22;19087;51.062;3.754;2024-03-08T02:16:24;5.30;99.90
32698;DHT22;19087;51.062;3.754;2024-03-08T02:18:50;5.30;99.90
32698;DHT22;19087;51.062;3.754;2024-03-08T02:21:17;5.30;99.90
32698;DHT22;19087;51.062;3.754;2024-03-08T02:23:43;5.40;99.90
32698;DHT22;19087;51.062;3.754;2024-03-08T02:26:09;5.40;99.90
32698;DHT22;19087;51.062;3.754;2024-03-08T02:28:36;5.30;99.90
32698;DHT22;19087;51.062;3.754;2024-03-08T02:31:02;5.30;99.90
32698;DHT22;19087;51.062;3.754;2024-03-08T02:33:28;5.30;99.90
32698;DHT22;19087;51.062;3.754;2024-03-08T02:35:54;5.50;99.90
32698;DHT22;19087;51.062;3.754;2024-03-08T02:38:22;5.50;99.90
32698;DHT22;19087;51.062;3.754;2024-03-08T02:40:50;5.40;99.90
32698;DHT22;19087;51.062;3.754;2024-03-08T02:43:17;5.40;99.90
32698;DHT22;19087;51.062;3.754;2024-03-08T02:45:43;5.40;99.90
32698;DHT22;19087;51.062;3.754;2024-03-08T02:48:11;5.30;99.90
32698;DHT22;19087;51.062;3.754;2024-03-08T02:50:37;5.30;99.90
32698;DHT22;19087;51.062;3.754;2024-03-08T02:53:05;5.30;99.90
32698;DHT22;19087;51.062;3.754;2024-03-08T02:55:31;5.20;99.90
32698;DHT22;19087;51.062;3.754;2024-03-08T02:57:59;5.10;99.90
32698;DHT22;19087;51.062;3.754;2024-03-08T03:00:24;5.00;99.90
32698;DHT22;19087;51.062;3.754;2024-03-08T03:02:51;5.10;99.90
32698;DHT22;19087;51.062;3.754;2024-03-08T03:05:22;5.20;99.90
32698;DHT22;19087;51.062;3.754;2024-03-08T03:07:48;5.30;99.90
32698;DHT22;19087;51.062;3.754;2024-03-08T03:10:14;5.40;99.90
32698;DHT22;19087;51.062;3.754;2024-03-08T03:12:42;5.30;99.90
32698;DHT22;19087;51.062;3.754;2024-03-08T03:15:08;5.40;99.90
32698;DHT22;19087;51.062;3.754;2024-03-08T03:17:35;5.30;99.90
32698;DHT22;19087;51.062;3.754;2024-03-08T03:20:01;5.30;99.90
32698;DHT22;19087;51.062;3.754;2024-03-08T03:22:34;5.30;99.90
32698;DHT22;19087;51.062;3.754;2024-03-08T03:25:00;5.20;99.90
32698;DHT22;19087;51.062;3.754;2024-03-08T03:27:26;5.10;99.90
32698;DHT22;19087;51.062;3.754;2024-03-08T03:29:51;5.00;99.90
32698;DHT22;19087;51.062;3.754;2024-03-08T03:32:17;5.00;99.90
32698;DHT22;19087;51.062;3.754;2024-03-08T03:34:46;4.90;99.90
32698;DHT22;19087;51.062;3.754;2024-03-08T03:37:11;5.00;99.90
32698;DHT22;19087;51.062;3.754;2024-03-08T03:39:40;4.90;99.90
32698;DHT22;19087;51.062;3.754;2024-03-08T03:42:17;4.90;99.90
32698;DHT22;19087;51.062;3.754;2024-03-08T03:44:48;4.80;99.90
32698;DHT22;19087;51.062;3.754;2024-03-08T03:47:14;4.70;99.90
32698;DHT22;19087;51.062;3.754;2024-03-08T03:49:43;4.80;99.90
32698;DHT22;19087;51.062;3.754;2024-03-08T03:52:10;4.70;99.90
32698;DHT22;19087;51.062;3.754;2024-03-08T03:54:36;4.70;99.90
32698;DHT22;19087;51.062;3.754;2024-03-08T03:57:02;4.70;99.90
32698;DHT22;19087;51.062;3.754;2024-03-08T03:59:29;4.70;99.90
32698;DHT22;19087;51.062;3.754;2024-03-08T04:01:55;4.70;99.90
32698;DHT22;19087;51.062;3.754;2024-03-08T04:04:21;4.50;99.90
32698;DHT22;19087;51.062;3.754;2024-03-08T04:06:47;4.60;99.90
32698;DHT22;19087;51.062;3.754;2024-03-08T04:09:13;4.60;99.90
32698;DHT22;19087;51.062;3.754;2024-03-08T04:11:39;4.60;99.90
32698;DHT22;19087;51.062;3.754;2024-03-08T04:14:05;4.60;99.90
32698;DHT22;19087;51.062;3.754;2024-03-08T04:16:31;4.50;99.90
32698;DHT22;19087;51.062;3.754;2024-03-08T04:19:00;4.50;99.90
32698;DHT22;19087;51.062;3.754;2024-03-08T04:21:32;4.30;99.90
32698;DHT22;19087;51.062;3.754;2024-03-08T04:23:58;4.30;99.90
32698;DHT22;19087;51.062;3.754;2024-03-08T04:26:24;4.30;99.90
32698;DHT22;19087;51.062;3.754;2024-03-08T04:28:51;4.30;99.90
32698;DHT22;19087;51.062;3.754;2024-03-08T04:31:17;4.30;99.90
32698;DHT22;19087;51.062;3.754;2024-03-08T04:33:43;4.20;99.90
32698;DHT22;19087;51.062;3.754;2024-03-08T04:36:10;4.20;99.90
32698;DHT22;19087;51.062;3.754;2024-03-08T04:38:42;4.20;99.90
32698;DHT22;19087;51.062;3.754;2024-03-08T04:41:08;4.20;99.90
32698;DHT22;19087;51.062;3.754;2024-03-08T04:43:34;4.20;99.90
32698;DHT22;19087;51.062;3.754;2024-03-08T04:46:00;4.30;99.90
32698;DHT22;19087;51.062;3.754;2024-03-08T04:48:26;4.20;99.90
32698;DHT22;19087;51.062;3.754;2024-03-08T04:50:55;4.20;99.90
32698;DHT22;19087;51.062;3.754;2024-03-08T04:53:21;4.20;99.90
32698;DHT22;19087;51.062;3.754;2024-03-08T04:55:47;4.20;99.90
32698;DHT22;19087;51.062;3.754;2024-03-08T04:58:13;4.10;99.90
32698;DHT22;19087;51.062;3.754;2024-03-08T05:00:41;4.20;99.90
32698;DHT22;19087;51.062;3.754;2024-03-08T05:03:07;4.20;99.90
32698;DHT22;19087;51.062;3.754;2024-03-08T05:05:34;4.20;99.90
32698;DHT22;19087;51.062;3.754;2024-03-08T05:07:59;4.20;99.90
32698;DHT22;19087;51.062;3.754;2024-03-08T05:10:26;4.10;99.90
32698;DHT22;19087;51.062;3.754;2024-03-08T05:12:55;4.10;99.90
32698;DHT22;19087;51.062;3.754;2024-03-08T05:15:21;4.00;99.90
32698;DHT22;19087;51.062;3.754;2024-03-08T05:17:47;4.00;99.90
32698;DHT22;19087;51.062;3.754;2024-03-08T05:20:12;4.00;99.90
32698;DHT22;19087;51.062;3.754;2024-03-08T05:22:39;3.90;99.90
32698;DHT22;19087;51.062;3.754;2024-03-08T05:25:06;3.80;99.90
32698;DHT22;19087;51.062;3.754;2024-03-08T05:27:34;3.80;99.90
32698;DHT22;19087;51.062;3.754;2024-03-08T05:30:00;3.80;99.90
32698;DHT22;19087;51.062;3.754;2024-03-08T05:32:26;3.90;99.90
32698;DHT22;19087;51.062;3.754;2024-03-08T05:34:52;3.90;99.90
32698;DHT22;19087;51.062;3.754;2024-03-08T05:37:17;3.90;99.90
32698;DHT22;19087;51.062;3.754;2024-03-08T05:39:46;3.90;99.90
32698;DHT22;19087;51.062;3.754;2024-03-08T05:42:12;3.90;99.90
32698;DHT22;19087;51.062;3.754;2024-03-08T05:44:38;3.80;99.90
32698;DHT22;19087;51.062;3.754;2024-03-08T05:47:06;3.80;99.90
32698;DHT22;19087;51.062;3.754;2024-03-08T05:49:32;3.70;99.90
32698;DHT22;19087;51.062;3.754;2024-03-08T05:51:59;3.70;99.90
32698;DHT22;19087;51.062;3.754;2024-03-08T05:54:25;3.60;99.90
32698;DHT22;19087;51.062;3.754;2024-03-08T05:56:52;3.70;99.90
32698;DHT22;19087;51.062;3.754;2024-03-08T05:59:18;3.80;99.90
32698;DHT22;19087;51.062;3.754;2024-03-08T06:01:44;3.80;99.90
32698;DHT22;19087;51.062;3.754;2024-03-08T06:04:11;3.80;99.90
32698;DHT22;19087;51.062;3.754;2024-03-08T06:06:37;3.90;99.90
32698;DHT22;19087;51.062;3.754;2024-03-08T06:09:03;3.80;99.90
32698;DHT22;19087;51.062;3.754;2024-03-08T06:11:36;3.70;99.90
32698;DHT22;19087;51.062;3.754;2024-03-08T06:14:03;3.80;99.90
32698;DHT22;19087;51.062;3.754;2024-03-08T06:16:28;3.70;99.90
32698;DHT22;19087;51.062;3.754;2024-03-08T06:18:57;3.60;99.90
32698;DHT22;19087;51.062;3.754;2024-03-08T06:21:24;3.60;99.90
32698;DHT22;19087;51.062;3.754;2024-03-08T06:23:53;3.50;99.90
32698;DHT22;19087;51.062;3.754;2024-03-08T06:26:20;3.50;99.90
32698;DHT22;19087;51.062;3.754;2024-03-08T06:28:48;3.70;99.90
32698;DHT22;19087;51.062;3.754;2024-03-08T06:31:14;3.80;99.90
32698;DHT22;19087;51.062;3.754;2024-03-08T06:33:40;3.90;99.90
32698;DHT22;19087;51.062;3.754;2024-03-08T06:36:08;3.80;99.90
32698;DHT22;19087;51.062;3.754;2024-03-08T06:38:34;3.90;99.90
32698;DHT22;19087;51.062;3.754;2024-03-08T06:40:59;3.70;99.90
32698;DHT22;19087;51.062;3.754;2024-03-08T06:43:28;3.80;99.90
32698;DHT22;19087;51.062;3.754;2024-03-08T06:45:59;3.70;99.90
32698;DHT22;19087;51.062;3.754;2024-03-08T06:48:25;3.80;99.90
32698;DHT22;19087;51.062;3.754;2024-03-08T06:50:51;3.90;99.90
32698;DHT22;19087;51.062;3.754;2024-03-08T06:53:16;3.90;99.90
32698;DHT22;19087;51.062;3.754;2024-03-08T06:55:52;4.00;99.90
32698;DHT22;19087;51.062;3.754;2024-03-08T06:58:20;4.10;99.90
32698;DHT22;19087;51.062;3.754;2024-03-08T07:00:47;4.10;99.90
32698;DHT22;19087;51.062;3.754;2024-03-08T07:03:20;4.20;99.90
32698;DHT22;19087;51.062;3.754;2024-03-08T07:05:49;4.30;99.90
32698;DHT22;19087;51.062;3.754;2024-03-08T07:08:15;4.60;99.90
32698;DHT22;19087;51.062;3.754;2024-03-08T07:10:43;4.90;99.90
32698;DHT22;19087;51.062;3.754;2024-03-08T07:13:13;5.40;99.90
32698;DHT22;19087;51.062;3.754;2024-03-08T07:15:40;5.90;99.90
32698;DHT22;19087;51.062;3.754;2024-03-08T07:18:06;6.30;99.90
32698;DHT22;19087;51.062;3.754;2024-03-08T07:20:41;6.80;99.90
32698;DHT22;19087;51.062;3.754;2024-03-08T07:23:08;6.90;99.90
32698;DHT22;19087;51.062;3.754;2024-03-08T07:25:34;6.90;99.90
32698;DHT22;19087;51.062;3.754;2024-03-08T07:28:00;6.70;99.90
32698;DHT22;19087;51.062;3.754;2024-03-08T07:30:27;6.70;99.90
32698;DHT22;19087;51.062;3.754;2024-03-08T07:33:11;6.60;99.90
32698;DHT22;19087;51.062;3.754;2024-03-08T07:35:38;6.40;99.90
32698;DHT22;19087;51.062;3.754;2024-03-08T07:38:05;6.10;99.90
32698;DHT22;19087;51.062;3.754;2024-03-08T07:40:33;6.80;99.90
32698;DHT22;19087;51.062;3.754;2024-03-08T07:43:00;7.30;99.90
32698;DHT22;19087;51.062;3.754;2024-03-08T07:45:26;7.80;99.90
32698;DHT22;19087;51.062;3.754;2024-03-08T07:47:52;7.80;99.90
32698;DHT22;19087;51.062;3.754;2024-03-08T07:50:18;7.60;99.90
32698;DHT22;19087;51.062;3.754;2024-03-08T07:52:46;7.40;99.90
32698;DHT22;19087;51.062;3.754;2024-03-08T07:55:11;7.70;99.90
32698;DHT22;19087;51.062;3.754;2024-03-08T07:57:37;8.00;99.90
32698;DHT22;19087;51.062;3.754;2024-03-08T08:00:06;8.00;99.90
32698;DHT22;19087;51.062;3.754;2024-03-08T08:02:34;8.20;99.90
32698;DHT22;19087;51.062;3.754;2024-03-08T08:05:01;7.90;99.90
32698;DHT22;19087;51.062;3.754;2024-03-08T08:07:27;7.70;99.90
32698;DHT22;19087;51.062;3.754;2024-03-08T08:09:53;7.60;99.90
32698;DHT22;19087;51.062;3.754;2024-03-08T08:12:19;7.50;99.90
32698;DHT22;19087;51.062;3.754;2024-03-08T08:14:45;7.80;99.90
32698;DHT22;19087;51.062;3.754;2024-03-08T08:17:10;7.90;99.90
32698;DHT22;19087;51.062;3.754;2024-03-08T08:19:37;7.50;99.90
32698;DHT22;19087;51.062;3.754;2024-03-08T08:22:04;7.50;99.90
32698;DHT22;19087;51.062;3.754;2024-03-08T08:24:31;7.00;99.90
32698;DHT22;19087;51.062;3.754;2024-03-08T08:26:57;6.90;99.90
32698;DHT22;19087;51.062;3.754;2024-03-08T08:29:23;7.00;99.90
32698;DHT22;19087;51.062;3.754;2024-03-08T08:31:49;6.70;99.90
32698;DHT22;19087;51.062;3.754;2024-03-08T08:34:17;6.40;99.90
32698;DHT22;19087;51.062;3.754;2024-03-08T08:36:45;6.20;99.90
32698;DHT22;19087;51.062;3.754;2024-03-08T08:39:11;6.30;99.90
32698;DHT22;19087;51.062;3.754;2024-03-08T08:41:40;6.30;99.90
32698;DHT22;19087;51.062;3.754;2024-03-08T08:44:07;6.50;99.90
32698;DHT22;19087;51.062;3.754;2024-03-08T08:46:36;6.50;99.90
32698;DHT22;19087;51.062;3.754;2024-03-08T08:49:03;6.50;99.90
32698;DHT22;19087;51.062;3.754;2024-03-08T08:51:30;6.60;99.90
32698;DHT22;19087;51.062;3.754;2024-03-08T08:54:01;6.50;99.90
32698;DHT22;19087;51.062;3.754;2024-03-08T08:56:27;6.50;99.90
32698;DHT22;19087;51.062;3.754;2024-03-08T08:58:54;6.50;99.90
32698;DHT22;19087;51.062;3.754;2024-03-08T09:01:22;6.50;99.90
32698;DHT22;19087;51.062;3.754;2024-03-08T09:03:49;6.60;99.90
32698;DHT22;19087;51.062;3.754;2024-03-08T09:06:16;6.60;99.90
32698;DHT22;19087;51.062;3.754;2024-03-08T09:08:42;6.70;99.90
32698;DHT22;19087;51.062;3.754;2024-03-08T09:11:10;6.50;99.90
32698;DHT22;19087;51.062;3.754;2024-03-08T09:13:37;6.60;99.90
32698;DHT22;19087;51.062;3.754;2024-03-08T09:16:03;6.50;99.90
32698;DHT22;19087;51.062;3.754;2024-03-08T09:18:31;6.50;99.90
32698;DHT22;19087;51.062;3.754;2024-03-08T09:20:58;6.70;99.90
32698;DHT22;19087;51.062;3.754;2024-03-08T09:23:23;6.70;99.90
32698;DHT22;19087;51.062;3.754;2024-03-08T09:25:51;6.80;99.90
32698;DHT22;19087;51.062;3.754;2024-03-08T09:28:17;6.90;99.90
32698;DHT22;19087;51.062;3.754;2024-03-08T09:30:42;6.90;99.90
32698;DHT22;19087;51.062;3.754;2024-03-08T09:33:10;7.10;99.90
32698;DHT22;19087;51.062;3.754;2024-03-08T09:35:37;7.20;99.90
32698;DHT22;19087;51.062;3.754;2024-03-08T09:38:02;7.20;99.90
32698;DHT22;19087;51.062;3.754;2024-03-08T09:40:30;7.40;99.90
32698;DHT22;19087;51.062;3.754;2024-03-08T09:42:56;7.30;99.90
32698;DHT22;19087;51.062;3.754;2024-03-08T09:45:23;7.30;99.90
32698;DHT22;19087;51.062;3.754;2024-03-08T09:47:50;7.40;99.90
32698;DHT22;19087;51.062;3.754;2024-03-08T09:50:17;7.40;99.90
32698;DHT22;19087;51.062;3.754;2024-03-08T09:52:45;7.40;99.90
32698;DHT22;19087;51.062;3.754;2024-03-08T09:55:11;7.50;99.90
32698;DHT22;19087;51.062;3.754;2024-03-08T09:57:40;7.60;99.90
32698;DHT22;19087;51.062;3.754;2024-03-08T10:00:06;7.70;99.90
32698;DHT22;19087;51.062;3.754;2024-03-08T10:02:50;7.70;99.90
32698;DHT22;19087;51.062;3.754;2024-03-08T10:05:18;7.70;99.90
32698;DHT22;19087;51.062;3.754;2024-03-08T10:07:44;7.70;99.90
32698;DHT22;19087;51.062;3.754;2024-03-08T10:10:10;7.70;99.90
32698;DHT22;19087;51.062;3.754;2024-03-08T10:12:38;7.80;99.90
32698;DHT22;19087;51.062;3.754;2024-03-08T10:15:07;7.90;99.90
32698;DHT22;19087;51.062;3.754;2024-03-08T10:17:34;8.00;99.90
32698;DHT22;19087;51.062;3.754;2024-03-08T10:20:00;8.10;99.90
32698;DHT22;19087;51.062;3.754;2024-03-08T10:22:26;8.30;99.90
32698;DHT22;19087;51.062;3.754;2024-03-08T10:24:52;8.50;99.90
32698;DHT22;19087;51.062;3.754;2024-03-08T10:27:19;8.50;99.90
32698;DHT22;19087;51.062;3.754;2024-03-08T10:29:49;8.50;99.90
32698;DHT22;19087;51.062;3.754;2024-03-08T10:32:17;8.60;99.90
32698;DHT22;19087;51.062;3.754;2024-03-08T10:34:43;8.50;99.90
32698;DHT22;19087;51.062;3.754;2024-03-08T10:37:15;8.60;99.90
32698;DHT22;19087;51.062;3.754;2024-03-08T10:39:48;8.80;99.90
32698;DHT22;19087;51.062;3.754;2024-03-08T10:42:22;8.90;99.90
32698;DHT22;19087;51.062;3.754;2024-03-08T10:45:15;8.80;99.90
32698;DHT22;19087;51.062;3.754;2024-03-08T10:47:49;9.00;99.90
32698;DHT22;19087;51.062;3.754;2024-03-08T10:50:20;9.10;99.90
32698;DHT22;19087;51.062;3.754;2024-03-08T10:52:52;9.20;99.90
32698;DHT22;19087;51.062;3.754;2024-03-08T10:55:19;9.10;99.90
32698;DHT22;19087;51.062;3.754;2024-03-08T10:57:46;9.20;99.90
32698;DHT22;19087;51.062;3.754;2024-03-08T11:00:13;9.30;99.90
32698;DHT22;19087;51.062;3.754;2024-03-08T11:02:43;9.40;99.90
32698;DHT22;19087;51.062;3.754;2024-03-08T11:05:35;9.50;99.90
32698;DHT22;19087;51.062;3.754;2024-03-08T11:08:19;9.50;99.90
32698;DHT22;19087;51.062;3.754;2024-03-08T11:10:50;9.40;99.90
32698;DHT22;19087;51.062;3.754;2024-03-08T11:13:41;9.30;99.90
32698;DHT22;19087;51.062;3.754;2024-03-08T11:16:11;9.40;99.90
32698;DHT22;19087;51.062;3.754;2024-03-08T11:18:38;9.40;99.90
32698;DHT22;19087;51.062;3.754;2024-03-08T11:21:08;9.40;99.90
32698;DHT22;19087;51.062;3.754;2024-03-08T11:23:38;9.40;99.90
32698;DHT22;19087;51.062;3.754;2024-03-08T11:26:26;9.50;99.90
32698;DHT22;19087;51.062;3.754;2024-03-08T11:28:52;9.50;99.90
32698;DHT22;19087;51.062;3.754;2024-03-08T11:33:47;9.80;99.90
32698;DHT22;19087;51.062;3.754;2024-03-08T11:36:24;9.80;99.90
32698;DHT22;19087;51.062;3.754;2024-03-08T11:38:51;9.70;99.90
32698;DHT22;19087;51.062;3.754;2024-03-08T11:41:22;9.90;99.90
32698;DHT22;19087;51.062;3.754;2024-03-08T11:44:01;10.10;99.90
32698;DHT22;19087;51.062;3.754;2024-03-08T11:46:27;10.20;99.90
32698;DHT22;19087;51.062;3.754;2024-03-08T11:48:54;10.30;99.90
32698;DHT22;19087;51.062;3.754;2024-03-08T11:51:21;10.20;99.90
32698;DHT22;19087;51.062;3.754;2024-03-08T11:53:49;10.30;99.90
32698;DHT22;19087;51.062;3.754;2024-03-08T11:56:15;10.40;99.90
32698;DHT22;19087;51.062;3.754;2024-03-08T11:58:42;10.50;99.90
32698;DHT22;19087;51.062;3.754;2024-03-08T12:01:20;10.40;99.90
32698;DHT22;19087;51.062;3.754;2024-03-08T12:03:55;10.50;99.90
32698;DHT22;19087;51.062;3.754;2024-03-08T12:06:24;10.60;99.90
32698;DHT22;19087;51.062;3.754;2024-03-08T12:08:51;10.60;99.90
32698;DHT22;19087;51.062;3.754;2024-03-08T12:11:20;10.70;99.90
32698;DHT22;19087;51.062;3.754;2024-03-08T12:13:49;10.70;99.90
32698;DHT22;19087;51.062;3.754;2024-03-08T12:16:19;10.70;99.90
32698;DHT22;19087;51.062;3.754;2024-03-08T12:18:47;10.80;99.90
32698;DHT22;19087;51.062;3.754;2024-03-08T12:21:14;11.00;99.90
32698;DHT22;19087;51.062;3.754;2024-03-08T12:23:44;11.20;99.90
32698;DHT22;19087;51.062;3.754;2024-03-08T12:26:14;11.30;99.90
32698;DHT22;19087;51.062;3.754;2024-03-08T12:28:42;11.30;99.90
32698;DHT22;19087;51.062;3.754;2024-03-08T12:31:12;11.20;99.90
32698;DHT22;19087;51.062;3.754;2024-03-08T12:33:54;11.20;99.90
32698;DHT22;19087;51.062;3.754;2024-03-08T12:36:25;11.30;99.90
32698;DHT22;19087;51.062;3.754;2024-03-08T12:38:53;11.30;99.90
32698;DHT22;19087;51.062;3.754;2024-03-08T12:41:20;11.40;99.90
32698;DHT22;19087;51.062;3.754;2024-03-08T12:43:47;11.30;99.90
32698;DHT22;19087;51.062;3.754;2024-03-08T12:46:17;11.40;99.90
32698;DHT22;19087;51.062;3.754;2024-03-08T12:48:47;11.40;99.90
32698;DHT22;19087;51.062;3.754;2024-03-08T12:51:13;11.30;99.90
32698;DHT22;19087;51.062;3.754;2024-03-08T12:53:42;11.30;99.90
32698;DHT22;19087;51.062;3.754;2024-03-08T12:56:20;11.40;99.90
32698;DHT22;19087;51.062;3.754;2024-03-08T12:58:55;11.70;99.90
32698;DHT22;19087;51.062;3.754;2024-03-08T13:01:20;11.60;99.90
32698;DHT22;19087;51.062;3.754;2024-03-08T13:03:46;11.60;99.90
32698;DHT22;19087;51.062;3.754;2024-03-08T13:06:12;11.70;99.90
32698;DHT22;19087;51.062;3.754;2024-03-08T13:08:38;11.80;99.90
32698;DHT22;19087;51.062;3.754;2024-03-08T13:11:08;11.80;99.90
32698;DHT22;19087;51.062;3.754;2024-03-08T13:13:37;11.90;99.90
32698;DHT22;19087;51.062;3.754;2024-03-08T13:16:06;12.20;99.60
32698;DHT22;19087;51.062;3.754;2024-03-08T13:18:34;12.00;99.70
32698;DHT22;19087;51.062;3.754;2024-03-08T13:21:00;12.10;99.50
32698;DHT22;19087;51.062;3.754;2024-03-08T13:23:30;12.00;99.30
32698;DHT22;19087;51.062;3.754;2024-03-08T13:25:56;12.00;99.40
32698;DHT22;19087;51.062;3.754;2024-03-08T13:28:23;12.00;99.60
32698;DHT22;19087;51.062;3.754;2024-03-08T13:30:54;11.80;99.30
32698;DHT22;19087;51.062;3.754;2024-03-08T13:33:21;11.90;99.60
32698;DHT22;19087;51.062;3.754;2024-03-08T13:35:49;12.00;99.40
32698;DHT22;19087;51.062;3.754;2024-03-08T13:38:16;12.00;99.40
32698;DHT22;19087;51.062;3.754;2024-03-08T13:40:45;12.10;99.70
32698;DHT22;19087;51.062;3.754;2024-03-08T13:43:12;12.20;99.20
32698;DHT22;19087;51.062;3.754;2024-03-08T13:45:39;12.30;99.20
32698;DHT22;19087;51.062;3.754;2024-03-08T13:48:06;12.30;99.10
32698;DHT22;19087;51.062;3.754;2024-03-08T13:50:32;12.30;99.00
32698;DHT22;19087;51.062;3.754;2024-03-08T13:52:58;12.40;99.10
32698;DHT22;19087;51.062;3.754;2024-03-08T13:55:24;12.40;98.80
32698;DHT22;19087;51.062;3.754;2024-03-08T13:57:53;12.40;98.90
32698;DHT22;19087;51.062;3.754;2024-03-08T14:00:19;12.40;98.70
32698;DHT22;19087;51.062;3.754;2024-03-08T14:02:49;12.40;98.60
32698;DHT22;19087;51.062;3.754;2024-03-08T14:05:15;12.30;98.60
32698;DHT22;19087;51.062;3.754;2024-03-08T14:07:41;12.40;98.60
32698;DHT22;19087;51.062;3.754;2024-03-08T14:10:08;12.40;98.70
32698;DHT22;19087;51.062;3.754;2024-03-08T14:12:35;12.50;99.00
32698;DHT22;19087;51.062;3.754;2024-03-08T14:15:01;12.60;98.40
32698;DHT22;19087;51.062;3.754;2024-03-08T14:17:27;12.70;98.70
32698;DHT22;19087;51.062;3.754;2024-03-08T14:19:56;12.80;98.40
32698;DHT22;19087;51.062;3.754;2024-03-08T14:22:23;13.00;98.20
32698;DHT22;19087;51.062;3.754;2024-03-08T14:24:49;13.00;98.00
32698;DHT22;19087;51.062;3.754;2024-03-08T14:27:16;13.00;97.90
32698;DHT22;19087;51.062;3.754;2024-03-08T14:29:44;13.00;97.70
32698;DHT22;19087;51.062;3.754;2024-03-08T14:32:10;13.20;97.80
32698;DHT22;19087;51.062;3.754;2024-03-08T14:34:36;13.20;97.90
32698;DHT22;19087;51.062;3.754;2024-03-08T14:37:02;13.40;97.80
32698;DHT22;19087;51.062;3.754;2024-03-08T14:39:31;13.50;97.50
32698;DHT22;19087;51.062;3.754;2024-03-08T14:41:59;13.30;97.60
32698;DHT22;19087;51.062;3.754;2024-03-08T14:44:25;13.30;97.50
32698;DHT22;19087;51.062;3.754;2024-03-08T14:46:57;13.30;97.20
32698;DHT22;19087;51.062;3.754;2024-03-08T14:49:24;13.20;97.40
32698;DHT22;19087;51.062;3.754;2024-03-08T14:51:52;13.10;97.40
32698;DHT22;19087;51.062;3.754;2024-03-08T14:54:18;13.10;97.90
32698;DHT22;19087;51.062;3.754;2024-03-08T14:56:49;13.20;97.60
32698;DHT22;19087;51.062;3.754;2024-03-08T14:59:18;13.10;97.00
32698;DHT22;19087;51.062;3.754;2024-03-08T15:01:46;13.10;97.10
32698;DHT22;19087;51.062;3.754;2024-03-08T15:04:12;13.10;97.40
32698;DHT22;19087;51.062;3.754;2024-03-08T15:06:38;13.20;97.60
32698;DHT22;19087;51.062;3.754;2024-03-08T15:09:05;13.20;97.50
32698;DHT22;19087;51.062;3.754;2024-03-08T15:11:40;13.20;97.40
32698;DHT22;19087;51.062;3.754;2024-03-08T15:14:08;13.20;97.30
32698;DHT22;19087;51.062;3.754;2024-03-08T15:16:37;13.20;97.40
32698;DHT22;19087;51.062;3.754;2024-03-08T15:19:05;13.10;97.80
32698;DHT22;19087;51.062;3.754;2024-03-08T15:21:31;13.30;97.30
32698;DHT22;19087;51.062;3.754;2024-03-08T15:23:57;13.10;97.40
32698;DHT22;19087;51.062;3.754;2024-03-08T15:26:23;13.20;97.40
32698;DHT22;19087;51.062;3.754;2024-03-08T15:28:51;13.10;97.50
32698;DHT22;19087;51.062;3.754;2024-03-08T15:31:17;13.00;97.70
32698;DHT22;19087;51.062;3.754;2024-03-08T15:33:47;13.00;97.80
32698;DHT22;19087;51.062;3.754;2024-03-08T15:36:17;13.20;97.70
32698;DHT22;19087;51.062;3.754;2024-03-08T15:38:47;13.20;97.60
32698;DHT22;19087;51.062;3.754;2024-03-08T15:41:13;13.00;97.80
32698;DHT22;19087;51.062;3.754;2024-03-08T15:43:40;13.10;98.00
32698;DHT22;19087;51.062;3.754;2024-03-08T15:46:06;13.10;97.80
32698;DHT22;19087;51.062;3.754;2024-03-08T15:48:35;13.00;97.90